sensor_id;sensor_type;location;lat;lon;timestamp;pressure;altitude;pressure_sealevel;temperature;humidity
12213;BME280;6169;44.158;22.788;2023-06-10T00:02:17;100582.63;;;21.72;62.69
12213;BME280;6169;44.158;22.788;2023-06-10T00:07:19;100564.78;;;21.20;65.48
12213;BME280;6169;44.158;22.788;2023-06-10T00:12:21;100565.72;;;21.37;64.25
12213;BME280;6169;44.158;22.788;2023-06-10T00:17:24;100569.44;;;21.33;63.99
12213;BME280;6169;44.158;22.788;2023-06-10T00:22:29;100565.47;;;21.62;63.70
12213;BME280;6169;44.158;22.788;2023-06-10T00:27:32;100573.56;;;22.12;61.17
12213;BME280;6169;44.158;22.788;2023-06-10T00:32:36;100557.56;;;21.77;61.69
12213;BME280;6169;44.158;22.788;2023-06-10T00:37:38;100556.59;;;22.04;61.53
12213;BME280;6169;44.158;22.788;2023-06-10T00:42:40;100559.06;;;22.37;60.04
12213;BME280;6169;44.158;22.788;2023-06-10T00:47:44;100563.25;;;22.26;59.89
12213;BME280;6169;44.158;22.788;2023-06-10T00:52:46;100569.03;;;21.85;61.18
12213;BME280;6169;44.158;22.788;2023-06-10T00:57:48;100581.38;;;22.10;59.84
12213;BME280;6169;44.158;22.788;2023-06-10T01:02:52;100566.16;;;22.21;59.08
12213;BME280;6169;44.158;22.788;2023-06-10T01:07:56;100571.19;;;22.19;60.57
12213;BME280;6169;44.158;22.788;2023-06-10T01:13:02;100567.97;;;22.03;60.36
12213;BME280;6169;44.158;22.788;2023-06-10T01:18:07;100578.56;;;22.01;61.18
12213;BME280;6169;44.158;22.788;2023-06-10T01:23:11;100577.28;;;22.38;59.66
12213;BME280;6169;44.158;22.788;2023-06-10T01:28:14;100567.53;;;22.10;59.61
12213;BME280;6169;44.158;22.788;2023-06-10T01:33:19;100564.09;;;22.04;60.51
12213;BME280;6169;44.158;22.788;2023-06-10T01:38:24;100558.47;;;21.87;60.04
12213;BME280;6169;44.158;22.788;2023-06-10T01:43:26;100562.94;;;21.51;62.27
12213;BME280;6169;44.158;22.788;2023-06-10T01:48:28;100561.25;;;22.18;59.87
12213;BME280;6169;44.158;22.788;2023-06-10T01:53:32;100563.22;;;21.95;60.90
12213;BME280;6169;44.158;22.788;2023-06-10T01:58:34;100560.97;;;21.52;61.97
12213;BME280;6169;44.158;22.788;2023-06-10T02:03:35;100563.19;;;21.64;61.42
12213;BME280;6169;44.158;22.788;2023-06-10T02:08:39;100565.38;;;21.75;60.03
12213;BME280;6169;44.158;22.788;2023-06-10T02:13:41;100571.22;;;21.74;60.95
12213;BME280;6169;44.158;22.788;2023-06-10T02:18:43;100577.97;;;21.59;61.04
12213;BME280;6169;44.158;22.788;2023-06-10T02:23:46;100576.56;;;21.11;63.04
12213;BME280;6169;44.158;22.788;2023-06-10T02:28:48;100574.00;;;21.51;62.43
12213;BME280;6169;44.158;22.788;2023-06-10T02:33:50;100571.00;;;21.62;61.01
12213;BME280;6169;44.158;22.788;2023-06-10T02:38:53;100577.91;;;21.50;62.40
12213;BME280;6169;44.158;22.788;2023-06-10T02:43:55;100580.06;;;22.07;60.07
12213;BME280;6169;44.158;22.788;2023-06-10T02:48:57;100569.19;;;21.88;60.40
12213;BME280;6169;44.158;22.788;2023-06-10T02:54:01;100573.28;;;21.91;60.35
12213;BME280;6169;44.158;22.788;2023-06-10T02:59:03;100559.34;;;22.04;59.06
12213;BME280;6169;44.158;22.788;2023-06-10T03:04:07;100561.59;;;21.49;62.55
12213;BME280;6169;44.158;22.788;2023-06-10T03:09:11;100564.94;;;21.82;59.38
12213;BME280;6169;44.158;22.788;2023-06-10T03:14:13;100573.00;;;21.70;59.76
12213;BME280;6169;44.158;22.788;2023-06-10T03:19:15;100577.38;;;21.93;59.54
12213;BME280;6169;44.158;22.788;2023-06-10T03:24:18;100578.22;;;22.02;59.17
12213;BME280;6169;44.158;22.788;2023-06-10T03:29:20;100586.50;;;22.65;57.30
12213;BME280;6169;44.158;22.788;2023-06-10T03:34:22;100589.41;;;23.08;53.84
12213;BME280;6169;44.158;22.788;2023-06-10T03:39:25;100600.50;;;22.60;56.76
12213;BME280;6169;44.158;22.788;2023-06-10T03:44:29;100594.72;;;22.87;55.01
12213;BME280;6169;44.158;22.788;2023-06-10T03:49:31;100588.25;;;22.52;56.02
12213;BME280;6169;44.158;22.788;2023-06-10T03:54:34;100590.56;;;22.19;58.59
12213;BME280;6169;44.158;22.788;2023-06-10T03:59:36;100579.75;;;21.86;60.11
12213;BME280;6169;44.158;22.788;2023-06-10T04:04:38;100588.19;;;22.03;59.24
12213;BME280;6169;44.158;22.788;2023-06-10T04:09:41;100586.75;;;22.37;58.58
12213;BME280;6169;44.158;22.788;2023-06-10T04:14:43;100601.56;;;22.41;59.21
12213;BME280;6169;44.158;22.788;2023-06-10T04:19:45;100601.97;;;22.17;59.49
12213;BME280;6169;44.158;22.788;2023-06-10T04:24:48;100602.31;;;22.64;57.97
12213;BME280;6169;44.158;22.788;2023-06-10T04:29:50;100604.91;;;22.61;57.30
12213;BME280;6169;44.158;22.788;2023-06-10T04:34:52;100597.38;;;22.53;57.34
12213;BME280;6169;44.158;22.788;2023-06-10T04:39:56;100595.88;;;22.95;56.41
12213;BME280;6169;44.158;22.788;2023-06-10T04:44:59;100598.41;;;22.65;57.00
12213;BME280;6169;44.158;22.788;2023-06-10T04:50:01;100598.50;;;23.00;55.56
12213;BME280;6169;44.158;22.788;2023-06-10T04:55:05;100598.47;;;22.34;57.28
12213;BME280;6169;44.158;22.788;2023-06-10T05:00:08;100581.03;;;22.82;57.56
12213;BME280;6169;44.158;22.788;2023-06-10T05:05:10;100584.50;;;23.05;57.69
12213;BME280;6169;44.158;22.788;2023-06-10T05:10:13;100581.06;;;23.00;56.22
12213;BME280;6169;44.158;22.788;2023-06-10T05:15:15;100589.19;;;22.87;57.75
12213;BME280;6169;44.158;22.788;2023-06-10T05:20:17;100588.91;;;23.06;57.07
12213;BME280;6169;44.158;22.788;2023-06-10T05:25:20;100590.03;;;23.05;58.16
12213;BME280;6169;44.158;22.788;2023-06-10T05:30:22;100598.69;;;23.21;55.45
12213;BME280;6169;44.158;22.788;2023-06-10T05:35:24;100595.75;;;23.26;56.59
12213;BME280;6169;44.158;22.788;2023-06-10T05:40:28;100593.78;;;23.01;56.98
12213;BME280;6169;44.158;22.788;2023-06-10T05:45:29;100597.75;;;23.69;55.55
12213;BME280;6169;44.158;22.788;2023-06-10T05:50:31;100585.16;;;23.63;55.12
12213;BME280;6169;44.158;22.788;2023-06-10T05:55:39;100587.94;;;23.28;55.82
12213;BME280;6169;44.158;22.788;2023-06-10T06:00:41;100592.78;;;24.01;54.53
12213;BME280;6169;44.158;22.788;2023-06-10T06:05:43;100599.72;;;23.43;54.09
12213;BME280;6169;44.158;22.788;2023-06-10T06:10:47;100603.84;;;24.18;53.38
12213;BME280;6169;44.158;22.788;2023-06-10T06:15:49;100592.16;;;24.04;54.16
12213;BME280;6169;44.158;22.788;2023-06-10T06:20:51;100594.53;;;24.23;52.28
12213;BME280;6169;44.158;22.788;2023-06-10T06:25:54;100588.88;;;24.79;52.06
12213;BME280;6169;44.158;22.788;2023-06-10T06:30:56;100593.97;;;24.77;52.25
12213;BME280;6169;44.158;22.788;2023-06-10T06:35:58;100597.00;;;24.63;51.49
12213;BME280;6169;44.158;22.788;2023-06-10T06:41:02;100591.78;;;24.53;52.43
12213;BME280;6169;44.158;22.788;2023-06-10T06:46:06;100587.69;;;24.88;52.30
12213;BME280;6169;44.158;22.788;2023-06-10T06:51:08;100587.44;;;25.02;49.59
12213;BME280;6169;44.158;22.788;2023-06-10T06:56:11;100575.38;;;25.40;48.14
12213;BME280;6169;44.158;22.788;2023-06-10T07:01:13;100564.03;;;25.45;48.65
12213;BME280;6169;44.158;22.788;2023-06-10T07:06:15;100577.31;;;25.27;49.56
12213;BME280;6169;44.158;22.788;2023-06-10T07:11:18;100570.06;;;25.05;49.66
12213;BME280;6169;44.158;22.788;2023-06-10T07:16:20;100565.72;;;25.58;48.44
12213;BME280;6169;44.158;22.788;2023-06-10T07:21:22;100561.88;;;25.84;47.86
12213;BME280;6169;44.158;22.788;2023-06-10T07:26:25;100549.94;;;25.84;49.06
12213;BME280;6169;44.158;22.788;2023-06-10T07:31:27;100555.34;;;26.50;45.60
12213;BME280;6169;44.158;22.788;2023-06-10T07:36:29;100553.47;;;26.17;47.04
12213;BME280;6169;44.158;22.788;2023-06-10T07:41:32;100546.41;;;26.57;44.87
12213;BME280;6169;44.158;22.788;2023-06-10T07:46:34;100541.63;;;27.22;42.92
12213;BME280;6169;44.158;22.788;2023-06-10T07:51:36;100555.09;;;28.04;42.20
12213;BME280;6169;44.158;22.788;2023-06-10T07:56:39;100543.75;;;27.53;42.91
12213;BME280;6169;44.158;22.788;2023-06-10T08:01:41;100550.72;;;27.75;42.38
12213;BME280;6169;44.158;22.788;2023-06-10T08:06:43;100545.09;;;28.19;41.57
12213;BME280;6169;44.158;22.788;2023-06-10T08:11:47;100550.78;;;28.07;38.81
12213;BME280;6169;44.158;22.788;2023-06-10T08:16:49;100544.19;;;28.63;38.49
12213;BME280;6169;44.158;22.788;2023-06-10T08:21:51;100547.97;;;28.07;36.97
12213;BME280;6169;44.158;22.788;2023-06-10T08:26:54;100545.53;;;28.53;36.65
12213;BME280;6169;44.158;22.788;2023-06-10T08:31:56;100544.81;;;28.56;36.09
12213;BME280;6169;44.158;22.788;2023-06-10T08:36:58;100537.78;;;28.46;37.32
12213;BME280;6169;44.158;22.788;2023-06-10T08:42:04;100528.25;;;27.56;37.78
12213;BME280;6169;44.158;22.788;2023-06-10T08:47:09;100532.66;;;28.01;36.44
12213;BME280;6169;44.158;22.788;2023-06-10T08:52:15;100531.28;;;27.95;36.23
12213;BME280;6169;44.158;22.788;2023-06-10T08:57:18;100536.69;;;28.86;36.85
12213;BME280;6169;44.158;22.788;2023-06-10T09:02:21;100529.97;;;29.07;36.85
12213;BME280;6169;44.158;22.788;2023-06-10T09:07:24;100516.63;;;29.00;34.78
12213;BME280;6169;44.158;22.788;2023-06-10T09:12:28;100523.50;;;27.88;36.33
12213;BME280;6169;44.158;22.788;2023-06-10T09:17:29;100519.59;;;28.21;35.82
12213;BME280;6169;44.158;22.788;2023-06-10T09:22:32;100514.59;;;28.46;35.61
12213;BME280;6169;44.158;22.788;2023-06-10T09:27:43;100501.69;;;29.74;33.79
12213;BME280;6169;44.158;22.788;2023-06-10T09:32:45;100491.56;;;29.27;34.26
12213;BME280;6169;44.158;22.788;2023-06-10T09:37:48;100490.78;;;28.87;35.13
12213;BME280;6169;44.158;22.788;2023-06-10T09:42:54;100481.09;;;29.43;34.24
12213;BME280;6169;44.158;22.788;2023-06-10T09:47:56;100484.66;;;28.31;33.36
12213;BME280;6169;44.158;22.788;2023-06-10T09:52:58;100473.50;;;28.31;32.52
12213;BME280;6169;44.158;22.788;2023-06-10T09:58:04;100471.31;;;29.76;32.63
12213;BME280;6169;44.158;22.788;2023-06-10T10:03:06;100460.22;;;29.83;31.38
12213;BME280;6169;44.158;22.788;2023-06-10T10:08:08;100464.13;;;30.01;32.07
12213;BME280;6169;44.158;22.788;2023-06-10T10:13:11;100450.78;;;28.87;32.90
12213;BME280;6169;44.158;22.788;2023-06-10T10:18:14;100451.09;;;29.44;31.39
12213;BME280;6169;44.158;22.788;2023-06-10T10:23:18;100447.25;;;29.29;32.56
12213;BME280;6169;44.158;22.788;2023-06-10T10:28:24;100445.63;;;29.97;32.45
12213;BME280;6169;44.158;22.788;2023-06-10T10:33:31;100438.81;;;29.71;32.21
12213;BME280;6169;44.158;22.788;2023-06-10T10:38:36;100433.47;;;30.09;31.61
12213;BME280;6169;44.158;22.788;2023-06-10T10:43:40;100435.44;;;30.35;31.44
12213;BME280;6169;44.158;22.788;2023-06-10T10:48:43;100428.75;;;30.43;32.12
12213;BME280;6169;44.158;22.788;2023-06-10T10:53:56;100427.78;;;29.82;31.52
12213;BME280;6169;44.158;22.788;2023-06-10T10:59:12;100429.34;;;30.29;31.45
12213;BME280;6169;44.158;22.788;2023-06-10T11:04:18;100418.66;;;30.65;31.41
12213;BME280;6169;44.158;22.788;2023-06-10T11:09:26;100411.53;;;31.05;29.40
12213;BME280;6169;44.158;22.788;2023-06-10T11:14:30;100404.22;;;31.38;30.11
12213;BME280;6169;44.158;22.788;2023-06-10T11:19:33;100403.84;;;31.43;30.40
12213;BME280;6169;44.158;22.788;2023-06-10T11:24:36;100398.66;;;31.45;29.92
12213;BME280;6169;44.158;22.788;2023-06-10T11:29:40;100394.78;;;32.08;29.17
12213;BME280;6169;44.158;22.788;2023-06-10T11:34:56;100392.91;;;32.34;29.08
12213;BME280;6169;44.158;22.788;2023-06-10T11:39:58;100395.06;;;31.92;28.10
12213;BME280;6169;44.158;22.788;2023-06-10T11:45:01;100388.84;;;31.65;28.69
12213;BME280;6169;44.158;22.788;2023-06-10T11:50:04;100390.03;;;31.61;28.85
12213;BME280;6169;44.158;22.788;2023-06-10T11:55:07;100373.09;;;31.53;29.10
12213;BME280;6169;44.158;22.788;2023-06-10T12:00:11;100375.00;;;32.60;28.77
12213;BME280;6169;44.158;22.788;2023-06-10T12:05:14;100367.09;;;31.55;28.28
12213;BME280;6169;44.158;22.788;2023-06-10T12:10:16;100362.06;;;31.82;28.69
12213;BME280;6169;44.158;22.788;2023-06-10T12:15:24;100360.34;;;32.26;27.52
12213;BME280;6169;44.158;22.788;2023-06-10T12:20:30;100347.41;;;33.59;26.77
12213;BME280;6169;44.158;22.788;2023-06-10T12:25:33;100350.09;;;34.30;26.87
12213;BME280;6169;44.158;22.788;2023-06-10T12:30:36;100347.19;;;35.18;26.27
12213;BME280;6169;44.158;22.788;2023-06-10T12:35:38;100339.97;;;32.50;28.04
12213;BME280;6169;44.158;22.788;2023-06-10T12:40:48;100332.47;;;32.97;27.16
12213;BME280;6169;44.158;22.788;2023-06-10T12:45:51;100322.75;;;32.62;28.81
12213;BME280;6169;44.158;22.788;2023-06-10T12:50:54;100329.63;;;32.83;28.21
12213;BME280;6169;44.158;22.788;2023-06-10T12:55:56;100325.59;;;34.09;27.06
12213;BME280;6169;44.158;22.788;2023-06-10T13:00:59;100340.16;;;33.72;26.09
12213;BME280;6169;44.158;22.788;2023-06-10T13:06:01;100340.03;;;34.33;26.47
12213;BME280;6169;44.158;22.788;2023-06-10T13:11:06;100329.69;;;33.11;26.83
12213;BME280;6169;44.158;22.788;2023-06-10T13:16:09;100324.88;;;33.55;27.25
12213;BME280;6169;44.158;22.788;2023-06-10T13:21:11;100334.09;;;32.95;27.84
12213;BME280;6169;44.158;22.788;2023-06-10T13:26:13;100331.69;;;33.15;28.45
12213;BME280;6169;44.158;22.788;2023-06-10T13:31:18;100333.22;;;31.92;29.45
12213;BME280;6169;44.158;22.788;2023-06-10T13:36:21;100322.31;;;31.32;29.95
12213;BME280;6169;44.158;22.788;2023-06-10T13:41:22;100325.59;;;31.93;30.31
12213;BME280;6169;44.158;22.788;2023-06-10T13:46:26;100322.78;;;30.97;30.95
12213;BME280;6169;44.158;22.788;2023-06-10T13:51:28;100337.09;;;31.70;29.77
12213;BME280;6169;44.158;22.788;2023-06-10T13:56:30;100338.44;;;31.90;29.75
12213;BME280;6169;44.158;22.788;2023-06-10T14:01:35;100335.84;;;31.64;30.15
12213;BME280;6169;44.158;22.788;2023-06-10T14:06:37;100337.81;;;31.60;30.67
12213;BME280;6169;44.158;22.788;2023-06-10T14:11:39;100330.78;;;29.47;35.64
12213;BME280;6169;44.158;22.788;2023-06-10T14:16:43;100334.97;;;29.34;37.20
12213;BME280;6169;44.158;22.788;2023-06-10T14:21:44;100337.94;;;29.68;37.80
12213;BME280;6169;44.158;22.788;2023-06-10T14:26:47;100338.34;;;28.58;38.47
12213;BME280;6169;44.158;22.788;2023-06-10T14:31:50;100342.34;;;28.41;38.67
12213;BME280;6169;44.158;22.788;2023-06-10T14:36:52;100356.91;;;29.32;38.38
12213;BME280;6169;44.158;22.788;2023-06-10T14:41:54;100373.94;;;29.46;38.16
12213;BME280;6169;44.158;22.788;2023-06-10T14:46:57;100400.84;;;27.20;41.15
12213;BME280;6169;44.158;22.788;2023-06-10T14:51:59;100406.94;;;27.85;38.98
12213;BME280;6169;44.158;22.788;2023-06-10T14:57:01;100406.41;;;25.98;43.64
12213;BME280;6169;44.158;22.788;2023-06-10T15:02:05;100398.13;;;25.77;43.26
12213;BME280;6169;44.158;22.788;2023-06-10T15:07:07;100408.13;;;25.21;43.57
12213;BME280;6169;44.158;22.788;2023-06-10T15:12:09;100403.81;;;25.44;41.90
12213;BME280;6169;44.158;22.788;2023-06-10T15:17:12;100408.91;;;26.53;40.46
12213;BME280;6169;44.158;22.788;2023-06-10T15:22:14;100396.13;;;27.52;39.39
12213;BME280;6169;44.158;22.788;2023-06-10T15:27:16;100376.41;;;27.60;39.43
12213;BME280;6169;44.158;22.788;2023-06-10T15:32:19;100369.34;;;27.35;38.99
12213;BME280;6169;44.158;22.788;2023-06-10T15:37:21;100355.16;;;27.56;38.38
12213;BME280;6169;44.158;22.788;2023-06-10T15:42:23;100362.69;;;28.03;38.17
12213;BME280;6169;44.158;22.788;2023-06-10T15:47:26;100360.38;;;27.57;39.12
12213;BME280;6169;44.158;22.788;2023-06-10T15:52:28;100359.25;;;27.94;37.24
12213;BME280;6169;44.158;22.788;2023-06-10T15:57:29;100345.53;;;28.40;36.69
12213;BME280;6169;44.158;22.788;2023-06-10T16:02:33;100354.13;;;28.31;36.95
12213;BME280;6169;44.158;22.788;2023-06-10T16:07:35;100358.84;;;28.46;36.54
12213;BME280;6169;44.158;22.788;2023-06-10T16:12:37;100363.47;;;28.97;35.88
12213;BME280;6169;44.158;22.788;2023-06-10T16:17:40;100381.00;;;28.94;36.13
12213;BME280;6169;44.158;22.788;2023-06-10T16:22:43;100393.06;;;29.18;35.01
12213;BME280;6169;44.158;22.788;2023-06-10T16:27:45;100386.47;;;29.52;33.05
12213;BME280;6169;44.158;22.788;2023-06-10T16:32:48;100393.50;;;29.66;32.37
12213;BME280;6169;44.158;22.788;2023-06-10T16:37:50;100399.84;;;28.58;34.49
12213;BME280;6169;44.158;22.788;2023-06-10T16:42:52;100411.91;;;29.21;33.94
12213;BME280;6169;44.158;22.788;2023-06-10T16:47:55;100422.72;;;29.22;33.45
12213;BME280;6169;44.158;22.788;2023-06-10T16:52:57;100425.34;;;29.34;34.49
12213;BME280;6169;44.158;22.788;2023-06-10T16:57:59;100431.38;;;29.13;35.73
12213;BME280;6169;44.158;22.788;2023-06-10T17:03:02;100432.66;;;29.00;36.27
12213;BME280;6169;44.158;22.788;2023-06-10T17:08:04;100423.53;;;29.23;35.79
12213;BME280;6169;44.158;22.788;2023-06-10T17:13:06;100426.22;;;28.96;36.70
12213;BME280;6169;44.158;22.788;2023-06-10T17:18:10;100428.56;;;28.55;37.92
12213;BME280;6169;44.158;22.788;2023-06-10T17:23:12;100433.50;;;27.95;38.93
12213;BME280;6169;44.158;22.788;2023-06-10T17:28:14;100453.78;;;28.23;38.61
12213;BME280;6169;44.158;22.788;2023-06-10T17:33:18;100465.41;;;27.78;39.70
12213;BME280;6169;44.158;22.788;2023-06-10T17:38:20;100462.00;;;28.00;39.78
12213;BME280;6169;44.158;22.788;2023-06-10T17:43:23;100455.50;;;27.96;39.92
12213;BME280;6169;44.158;22.788;2023-06-10T17:48:26;100449.19;;;27.24;40.55
12213;BME280;6169;44.158;22.788;2023-06-10T17:53:28;100453.22;;;26.70;40.99
12213;BME280;6169;44.158;22.788;2023-06-10T17:58:30;100452.59;;;26.48;41.98
12213;BME280;6169;44.158;22.788;2023-06-10T18:03:34;100437.50;;;26.13;42.83
12213;BME280;6169;44.158;22.788;2023-06-10T18:08:38;100453.88;;;26.39;42.44
12213;BME280;6169;44.158;22.788;2023-06-10T18:13:40;100470.22;;;26.53;41.96
12213;BME280;6169;44.158;22.788;2023-06-10T18:18:44;100469.78;;;26.38;42.12
12213;BME280;6169;44.158;22.788;2023-06-10T18:23:47;100471.53;;;26.06;43.37
12213;BME280;6169;44.158;22.788;2023-06-10T18:28:50;100480.19;;;26.17;43.43
12213;BME280;6169;44.158;22.788;2023-06-10T18:33:54;100483.47;;;26.07;42.72
12213;BME280;6169;44.158;22.788;2023-06-10T18:38:56;100480.41;;;25.75;42.83
12213;BME280;6169;44.158;22.788;2023-06-10T18:43:59;100482.78;;;25.97;42.67
12213;BME280;6169;44.158;22.788;2023-06-10T18:49:03;100485.44;;;25.60;43.20
12213;BME280;6169;44.158;22.788;2023-06-10T18:54:06;100502.50;;;25.26;44.58
12213;BME280;6169;44.158;22.788;2023-06-10T18:59:09;100500.47;;;24.93;45.80
12213;BME280;6169;44.158;22.788;2023-06-10T19:04:14;100506.28;;;25.42;44.43
12213;BME280;6169;44.158;22.788;2023-06-10T19:09:18;100507.28;;;25.25;45.35
12213;BME280;6169;44.158;22.788;2023-06-10T19:14:21;100523.75;;;25.64;44.48
12213;BME280;6169;44.158;22.788;2023-06-10T19:19:26;100521.09;;;25.34;45.89
12213;BME280;6169;44.158;22.788;2023-06-10T19:24:29;100524.41;;;25.06;46.75
12213;BME280;6169;44.158;22.788;2023-06-10T19:29:32;100527.38;;;24.50;47.54
12213;BME280;6169;44.158;22.788;2023-06-10T19:34:37;100523.59;;;25.27;46.82
12213;BME280;6169;44.158;22.788;2023-06-10T19:39:39;100527.22;;;25.27;46.75
12213;BME280;6169;44.158;22.788;2023-06-10T19:44:41;100530.44;;;24.87;47.58
12213;BME280;6169;44.158;22.788;2023-06-10T19:49:46;100537.28;;;24.69;48.58
12213;BME280;6169;44.158;22.788;2023-06-10T19:54:49;100527.91;;;25.24;46.61
12213;BME280;6169;44.158;22.788;2023-06-10T19:59:51;100526.25;;;24.81;47.69
12213;BME280;6169;44.158;22.788;2023-06-10T20:04:56;100528.50;;;24.29;49.27
12213;BME280;6169;44.158;22.788;2023-06-10T20:09:58;100528.06;;;24.47;48.82
12213;BME280;6169;44.158;22.788;2023-06-10T20:15:00;100520.59;;;24.10;48.53
12213;BME280;6169;44.158;22.788;2023-06-10T20:20:03;100514.28;;;23.74;49.44
12213;BME280;6169;44.158;22.788;2023-06-10T20:25:06;100507.00;;;23.61;49.93
12213;BME280;6169;44.158;22.788;2023-06-10T20:30:10;100504.41;;;23.38;50.56
12213;BME280;6169;44.158;22.788;2023-06-10T20:35:13;100507.66;;;23.41;50.47
12213;BME280;6169;44.158;22.788;2023-06-10T20:40:15;100490.56;;;23.30;49.73
12213;BME280;6169;44.158;22.788;2023-06-10T20:45:17;100500.53;;;23.05;51.08
12213;BME280;6169;44.158;22.788;2023-06-10T20:50:21;100490.09;;;23.02;50.69
12213;BME280;6169;44.158;22.788;2023-06-10T20:55:23;100490.88;;;23.11;50.43
12213;BME280;6169;44.158;22.788;2023-06-10T21:00:24;100495.44;;;23.15;50.23
12213;BME280;6169;44.158;22.788;2023-06-10T21:05:28;100491.72;;;23.03;50.82
12213;BME280;6169;44.158;22.788;2023-06-10T21:10:30;100496.09;;;22.95;50.76
12213;BME280;6169;44.158;22.788;2023-06-10T21:15:32;100485.16;;;22.81;50.39
12213;BME280;6169;44.158;22.788;2023-06-10T21:20:36;100477.28;;;22.48;51.62
12213;BME280;6169;44.158;22.788;2023-06-10T21:25:38;100470.97;;;22.65;51.37
12213;BME280;6169;44.158;22.788;2023-06-10T21:30:40;100461.81;;;22.56;53.79
12213;BME280;6169;44.158;22.788;2023-06-10T21:35:44;100464.59;;;22.65;53.64
12213;BME280;6169;44.158;22.788;2023-06-10T21:40:46;100485.59;;;22.40;53.06
12213;BME280;6169;44.158;22.788;2023-06-10T21:45:47;100478.44;;;22.65;52.15
12213;BME280;6169;44.158;22.788;2023-06-10T21:50:51;100423.94;;;22.17;53.53
12213;BME280;6169;44.158;22.788;2023-06-10T21:55:53;100480.25;;;22.61;52.85
12213;BME280;6169;44.158;22.788;2023-06-10T22:00:54;100469.16;;;22.52;53.90
12213;BME280;6169;44.158;22.788;2023-06-10T22:05:57;100469.44;;;22.33;52.27
12213;BME280;6169;44.158;22.788;2023-06-10T22:11:02;100465.28;;;21.73;54.43
12213;BME280;6169;44.158;22.788;2023-06-10T22:16:04;100459.88;;;22.08;54.14
12213;BME280;6169;44.158;22.788;2023-06-10T22:21:08;100455.06;;;21.82;53.79
12213;BME280;6169;44.158;22.788;2023-06-10T22:26:10;100467.47;;;21.94;53.25
12213;BME280;6169;44.158;22.788;2023-06-10T22:31:12;100463.97;;;21.71;56.03
12213;BME280;6169;44.158;22.788;2023-06-10T22:36:15;100468.09;;;21.28;55.75
12213;BME280;6169;44.158;22.788;2023-06-10T22:41:17;100453.75;;;21.26;55.33
12213;BME280;6169;44.158;22.788;2023-06-10T22:46:19;100458.84;;;21.33;56.85
12213;BME280;6169;44.158;22.788;2023-06-10T22:51:22;100468.19;;;21.46;55.57
12213;BME280;6169;44.158;22.788;2023-06-10T22:56:25;100450.69;;;20.83;55.74
12213;BME280;6169;44.158;22.788;2023-06-10T23:01:27;100455.13;;;20.42;58.49
12213;BME280;6169;44.158;22.788;2023-06-10T23:06:30;100447.28;;;20.22;59.48
12213;BME280;6169;44.158;22.788;2023-06-10T23:11:32;100451.06;;;20.76;56.72
12213;BME280;6169;44.158;22.788;2023-06-10T23:16:34;100447.31;;;21.08;56.94
12213;BME280;6169;44.158;22.788;2023-06-10T23:21:37;100444.69;;;21.34;55.11
12213;BME280;6169;44.158;22.788;2023-06-10T23:26:43;100436.88;;;20.83;54.65
12213;BME280;6169;44.158;22.788;2023-06-10T23:31:45;100436.31;;;20.81;56.70
12213;BME280;6169;44.158;22.788;2023-06-10T23:36:48;100433.25;;;20.82;56.85
12213;BME280;6169;44.158;22.788;2023-06-10T23:41:52;100432.22;;;21.14;55.30
12213;BME280;6169;44.158;22.788;2023-06-10T23:46:54;100431.88;;;20.71;56.67
12213;BME280;6169;44.158;22.788;2023-06-10T23:51:57;100430.66;;;20.63;57.46
12213;BME280;6169;44.158;22.788;2023-06-10T23:56:59;100430.25;;;20.56;58.46
